PWSweather.com
Personal Weather Stations
Station Observations
SHAHALMS1
Eftra, Falkenberg, HA

EftraFalkenberg, HA

Lat: 56.85, Lon: 12.65

Elevation: 140

Station Type:

http://hem.passagen.se/risarp101

High Low Average
Temperature 43.3°F6.3°C 34.2°F1.2°C 40.4°F4.7°C
Dew Point 42.3°F5.7°C 28.9°F-1.7°C 38.7°F3.7°C
Winds 13.0 mph 20.9 kmh Calm Calm 6.0 mph SW9.7 kmh SW
Wind Gusts 27.6 mph44.4 kmh -- 13.0 mph20.9 kmh
Humidity 96% 81% 94%
Pressure 30.36 in1028.1 mb 29.95 in1014.2 mb -
Precipitation 0.77 in19.6 mm - -
Hour Temp Dew Point Humidity Winds Wind Gusts Pressure Precip Precip Rate Daily Precip Total
12:00 AM 41.4°F5.2°C 39.8°F4.3°C 94% 7.5 mph S12.1 kmh S 15.7 mph25.3 kmh 30.07 in1018.3 mb 0.05 in1.3 mm 0.00 in0.0 mm 0.05 in1.3 mm
12:15 AM 41.4°F5.2°C 40.0°F4.4°C 95% 7.9 mph S12.7 kmh S 15.7 mph25.3 kmh 30.04 in1017.3 mb 0.00 in0.0 mm 0.00 in0.0 mm 0.05 in1.3 mm
12:30 AM 41.5°F5.3°C 40.2°F4.6°C 95% 6.2 mph S10.0 kmh S 13.6 mph21.9 kmh 30.04 in1017.3 mb 0.06 in1.5 mm 0.24 in6.1 mm 0.06 in1.5 mm
12:45 AM 41.5°F5.3°C 40.2°F4.6°C 95% 5.8 mph S9.3 kmh S 10.0 mph16.1 kmh 30.04 in1017.3 mb 0.06 in1.5 mm 0.00 in0.0 mm 0.06 in1.5 mm
01:00 AM 41.5°F5.3°C 40.2°F4.6°C 95% 6.9 mph S11.1 kmh S 13.6 mph21.9 kmh 30.04 in1017.3 mb 0.06 in1.5 mm 0.00 in0.0 mm 0.06 in1.5 mm
01:15 AM 41.5°F5.3°C 40.2°F4.6°C 95% 6.2 mph S10.0 kmh S 19.3 mph31.1 kmh 30.04 in1017.3 mb 0.10 in2.5 mm 0.16 in4.1 mm 0.10 in2.5 mm
01:30 AM 41.5°F5.3°C 40.2°F4.6°C 95% 6.7 mph S10.8 kmh S 15.7 mph25.3 kmh 30.04 in1017.3 mb 0.04 in1.0 mm 0.00 in0.0 mm 0.10 in2.5 mm
01:45 AM 41.4°F5.2°C 40.0°F4.4°C 95% 5.9 mph S9.5 kmh S 11.8 mph19.0 kmh 30.04 in1017.3 mb 0.04 in1.0 mm 0.00 in0.0 mm 0.10 in2.5 mm
02:00 AM 41.4°F5.2°C 40.0°F4.4°C 95% 5.6 mph S9.0 kmh S 14.7 mph23.7 kmh 30.01 in1016.3 mb 0.04 in1.0 mm 0.00 in0.0 mm 0.10 in2.5 mm
02:15 AM 41.2°F5.1°C 39.9°F4.4°C 95% 6.1 mph S9.8 kmh S 12.5 mph20.1 kmh 30.01 in1016.3 mb 0.00 in0.0 mm 0.00 in0.0 mm 0.10 in2.5 mm
02:30 AM 41.0°F5.0°C 39.7°F4.3°C 95% 7.0 mph S11.3 kmh S 15.4 mph24.8 kmh 30.01 in1016.3 mb 0.06 in1.5 mm 0.24 in6.1 mm 0.16 in4.1 mm
02:45 AM 40.6°F4.8°C 39.3°F4.1°C 95% 7.1 mph SSW11.4 kmh SSW 15.0 mph24.1 kmh 30.01 in1016.3 mb 0.06 in1.5 mm 0.00 in0.0 mm 0.16 in4.1 mm
03:00 AM 40.5°F4.7°C 39.1°F3.9°C 95% 8.2 mph SSW13.2 kmh SSW 12.9 mph20.8 kmh 30.01 in1016.3 mb 0.06 in1.5 mm 0.00 in0.0 mm 0.16 in4.1 mm
03:15 AM 40.5°F4.7°C 39.1°F3.9°C 95% 7.6 mph WSW12.2 kmh WSW 13.6 mph21.9 kmh 30.01 in1016.3 mb 0.11 in2.8 mm 0.20 in5.1 mm 0.21 in5.3 mm
03:30 AM 40.5°F4.7°C 39.1°F3.9°C 95% 7.1 mph SW11.4 kmh SW 14.0 mph22.5 kmh 29.98 in1015.2 mb 0.05 in1.3 mm 0.00 in0.0 mm 0.21 in5.3 mm
03:45 AM 40.3°F4.6°C 39.0°F3.9°C 95% 7.3 mph WSW11.7 kmh WSW 12.2 mph19.6 kmh 29.98 in1015.2 mb 0.05 in1.3 mm 0.00 in0.0 mm 0.21 in5.3 mm
04:00 AM 40.5°F4.7°C 39.1°F3.9°C 95% 6.7 mph WSW10.8 kmh WSW 12.9 mph20.8 kmh 30.01 in1016.3 mb 0.10 in2.5 mm 0.07 in1.8 mm 0.26 in6.6 mm
04:15 AM 40.5°F4.7°C 39.1°F3.9°C 95% 6.4 mph WSW10.3 kmh WSW 10.4 mph16.7 kmh 30.01 in1016.3 mb 0.05 in1.3 mm 0.00 in0.0 mm 0.26 in6.6 mm
04:30 AM 40.5°F4.7°C 39.1°F3.9°C 95% 6.4 mph WSW10.3 kmh WSW 10.4 mph16.7 kmh 29.98 in1015.2 mb 0.05 in1.3 mm 0.00 in0.0 mm 0.26 in6.6 mm
04:45 AM 40.6°F4.8°C 39.3°F4.1°C 95% 6.4 mph W10.3 kmh W 12.2 mph19.6 kmh 30.01 in1016.3 mb 0.10 in2.5 mm 0.20 in5.1 mm 0.31 in7.9 mm
05:00 AM 40.6°F4.8°C 39.3°F4.1°C 95% 6.6 mph W10.6 kmh W 10.4 mph16.7 kmh 30.01 in1016.3 mb 0.05 in1.3 mm 0.00 in0.0 mm 0.31 in7.9 mm
05:15 AM 40.6°F4.8°C 39.3°F4.1°C 95% 7.1 mph W11.4 kmh W 12.5 mph20.1 kmh 30.01 in1016.3 mb 0.10 in2.5 mm 0.20 in5.1 mm 0.36 in9.1 mm
05:30 AM 40.8°F4.9°C 39.5°F4.2°C 95% 7.1 mph W11.4 kmh W 10.4 mph16.7 kmh 30.01 in1016.3 mb 0.10 in2.5 mm 0.00 in0.0 mm 0.36 in9.1 mm
05:45 AM 40.6°F4.8°C 39.3°F4.1°C 95% 5.0 mph W8.0 kmh W 10.0 mph16.1 kmh 30.01 in1016.3 mb 0.05 in1.3 mm 0.00 in0.0 mm 0.36 in9.1 mm
06:00 AM 40.8°F4.9°C 39.5°F4.2°C 95% 6.9 mph WSW11.1 kmh WSW 12.9 mph20.8 kmh 30.01 in1016.3 mb 0.10 in2.5 mm 0.07 in1.8 mm 0.41 in10.4 mm
06:15 AM 40.8°F4.9°C 39.5°F4.2°C 95% 6.9 mph SW11.1 kmh SW 12.5 mph20.1 kmh 29.98 in1015.2 mb 0.05 in1.3 mm 0.00 in0.0 mm 0.41 in10.4 mm
06:30 AM 41.0°F5.0°C 39.7°F4.3°C 95% 7.9 mph SSW12.7 kmh SSW 13.6 mph21.9 kmh 29.95 in1014.2 mb 0.05 in1.3 mm 0.00 in0.0 mm 0.41 in10.4 mm
06:45 AM 41.0°F5.0°C 39.7°F4.3°C 95% 8.1 mph SW13.0 kmh SW 16.5 mph26.6 kmh 29.95 in1014.2 mb 0.11 in2.8 mm 0.24 in6.1 mm 0.47 in11.9 mm
07:00 AM 41.0°F5.0°C 39.7°F4.3°C 95% 8.9 mph SW14.3 kmh SW 15.7 mph25.3 kmh 29.95 in1014.2 mb 0.06 in1.5 mm 0.00 in0.0 mm 0.47 in11.9 mm
07:15 AM 40.8°F4.9°C 39.5°F4.2°C 95% 8.7 mph SW14.0 kmh SW 15.4 mph24.8 kmh 29.95 in1014.2 mb 0.06 in1.5 mm 0.00 in0.0 mm 0.47 in11.9 mm
07:30 AM 40.8°F4.9°C 39.5°F4.2°C 95% 8.6 mph SW13.8 kmh SW 14.0 mph22.5 kmh 29.95 in1014.2 mb 0.11 in2.8 mm 0.20 in5.1 mm 0.52 in13.2 mm
07:45 AM 40.6°F4.8°C 39.3°F4.1°C 95% 7.3 mph WSW11.7 kmh WSW 12.9 mph20.8 kmh 29.95 in1014.2 mb 0.05 in1.3 mm 0.00 in0.0 mm 0.52 in13.2 mm
08:00 AM 40.8°F4.9°C 39.5°F4.2°C 95% 7.1 mph W11.4 kmh W 12.9 mph20.8 kmh 29.95 in1014.2 mb 0.05 in1.3 mm 0.00 in0.0 mm 0.52 in13.2 mm
08:15 AM 41.0°F5.0°C 39.7°F4.3°C 95% 6.8 mph W10.9 kmh W 12.9 mph20.8 kmh 29.98 in1015.2 mb 0.10 in2.5 mm 0.20 in5.1 mm 0.58 in14.7 mm
08:31 AM 41.4°F5.2°C 40.0°F4.4°C 95% 6.4 mph W10.3 kmh W 12.5 mph20.1 kmh 29.98 in1015.2 mb 0.10 in2.5 mm 0.00 in0.0 mm 0.63 in16.0 mm
08:39 AM 41.4°F5.2°C 40.0°F4.4°C 95% 6.4 mph W10.3 kmh W 9.4 mph15.1 kmh 29.98 in1015.2 mb 0.10 in2.5 mm 0.00 in0.0 mm 0.62 in15.7 mm
08:40 AM 41.4°F5.2°C 40.0°F4.4°C 95% 6.3 mph W10.1 kmh W 8.9 mph14.3 kmh 29.98 in1015.2 mb 0.10 in2.5 mm 0.00 in0.0 mm 0.62 in15.7 mm
08:45 AM 41.5°F5.3°C 40.2°F4.6°C 95% 6.5 mph W10.5 kmh W 12.2 mph19.6 kmh 29.98 in1015.2 mb 0.10 in2.5 mm 0.00 in0.0 mm 0.62 in15.7 mm
09:00 AM 41.5°F5.3°C 40.2°F4.6°C 95% 7.0 mph W11.3 kmh W 13.6 mph21.9 kmh 29.98 in1015.2 mb 0.10 in2.5 mm 0.00 in0.0 mm 0.67 in17.0 mm
09:15 AM 41.5°F5.3°C 40.2°F4.6°C 95% 7.2 mph W11.6 kmh W 12.2 mph19.6 kmh 29.98 in1015.2 mb 0.10 in2.5 mm 0.00 in0.0 mm 0.67 in17.0 mm
09:30 AM 41.7°F5.4°C 40.4°F4.7°C 95% 6.6 mph W10.6 kmh W 12.2 mph19.6 kmh 29.98 in1015.2 mb 0.05 in1.3 mm 0.00 in0.0 mm 0.67 in17.0 mm
09:45 AM 41.9°F5.5°C 40.6°F4.8°C 95% 7.4 mph W11.9 kmh W 14.0 mph22.5 kmh 30.01 in1016.3 mb 0.05 in1.3 mm 0.00 in0.0 mm 0.67 in17.0 mm
10:00 AM 42.1°F5.6°C 40.8°F4.9°C 95% 6.9 mph W11.1 kmh W 12.5 mph20.1 kmh 29.98 in1015.2 mb 0.00 in0.0 mm 0.00 in0.0 mm 0.67 in17.0 mm
10:15 AM 42.3°F5.7°C 40.9°F4.9°C 95% 6.8 mph W10.9 kmh W 12.5 mph20.1 kmh 29.98 in1015.2 mb 0.00 in0.0 mm 0.00 in0.0 mm 0.67 in17.0 mm
10:30 AM 42.3°F5.7°C 40.9°F4.9°C 95% 5.3 mph W8.5 kmh W 9.3 mph15.0 kmh 29.98 in1015.2 mb 0.05 in1.3 mm 0.20 in5.1 mm 0.72 in18.3 mm
10:45 AM 42.4°F5.8°C 41.4°F5.2°C 96% 4.5 mph W7.2 kmh W 6.8 mph10.9 kmh 29.98 in1015.2 mb 0.05 in1.3 mm 0.00 in0.0 mm 0.72 in18.3 mm
11:00 AM 42.8°F6.0°C 41.7°F5.4°C 96% 5.3 mph W8.5 kmh W 12.5 mph20.1 kmh 30.01 in1016.3 mb 0.05 in1.3 mm 0.00 in0.0 mm 0.72 in18.3 mm
11:15 AM 43.0°F6.1°C 41.9°F5.5°C 96% 4.1 mph W6.6 kmh W 6.8 mph10.9 kmh 30.01 in1016.3 mb 0.05 in1.3 mm 0.00 in0.0 mm 0.72 in18.3 mm
11:30 AM 43.0°F6.1°C 41.9°F5.5°C 96% 4.8 mph W7.7 kmh W 9.3 mph15.0 kmh 30.01 in1016.3 mb 0.00 in0.0 mm 0.00 in0.0 mm 0.72 in18.3 mm
11:45 AM 43.0°F6.1°C 41.9°F5.5°C 96% 5.4 mph W8.7 kmh W 9.7 mph15.6 kmh 30.01 in1016.3 mb 0.00 in0.0 mm 0.00 in0.0 mm 0.72 in18.3 mm
12:00 PM 43.0°F6.1°C 41.9°F5.5°C 96% 4.7 mph W7.6 kmh W 9.3 mph15.0 kmh 30.01 in1016.3 mb 0.00 in0.0 mm 0.00 in0.0 mm 0.72 in18.3 mm
12:15 PM 42.8°F6.0°C 41.5°F5.3°C 95% 4.5 mph W7.2 kmh W 9.7 mph15.6 kmh 30.01 in1016.3 mb 0.00 in0.0 mm 0.00 in0.0 mm 0.72 in18.3 mm
12:30 PM 42.8°F6.0°C 41.5°F5.3°C 95% 3.0 mph W4.8 kmh W 8.6 mph13.8 kmh 30.01 in1016.3 mb 0.00 in0.0 mm 0.00 in0.0 mm 0.72 in18.3 mm
12:45 PM 43.0°F6.1°C 41.6°F5.3°C 95% 3.2 mph W5.1 kmh W 12.9 mph20.8 kmh 30.01 in1016.3 mb 0.00 in0.0 mm 0.00 in0.0 mm 0.72 in18.3 mm
01:00 PM 43.2°F6.2°C 42.1°F5.6°C 96% 2.5 mph W4.0 kmh W 9.7 mph15.6 kmh 30.01 in1016.3 mb 0.00 in0.0 mm 0.00 in0.0 mm 0.72 in18.3 mm
01:15 PM 43.2°F6.2°C 42.1°F5.6°C 96% 1.4 mph W2.3 kmh W 6.8 mph10.9 kmh 30.04 in1017.3 mb 0.00 in0.0 mm 0.00 in0.0 mm 0.72 in18.3 mm
01:30 PM 43.2°F6.2°C 42.1°F5.6°C 96% 2.5 mph W4.0 kmh W 11.1 mph17.9 kmh 30.01 in1016.3 mb 0.05 in1.3 mm 0.20 in5.1 mm 0.77 in19.6 mm
01:45 PM 43.2°F6.2°C 42.1°F5.6°C 96% 2.3 mph W3.7 kmh W 10.0 mph16.1 kmh 30.01 in1016.3 mb 0.05 in1.3 mm 0.00 in0.0 mm 0.77 in19.6 mm
02:00 PM 43.2°F6.2°C 41.8°F5.4°C 95% 0.5 mph W0.8 kmh W 6.1 mph9.8 kmh 30.01 in1016.3 mb 0.05 in1.3 mm 0.00 in0.0 mm 0.77 in19.6 mm
02:15 PM 43.0°F6.1°C 41.6°F5.3°C 95% 0.1 mph NW0.2 kmh NW 3.2 mph5.1 kmh 30.01 in1016.3 mb 0.05 in1.3 mm 0.00 in0.0 mm 0.77 in19.6 mm
02:30 PM 43.2°F6.2°C 41.8°F5.4°C 95% 0.3 mph W0.5 kmh W 5.7 mph9.2 kmh 30.01 in1016.3 mb 0.00 in0.0 mm 0.00 in0.0 mm 0.77 in19.6 mm
02:45 PM 43.3°F6.3°C 42.3°F5.7°C 96% Calm Calm -- 30.01 in1016.3 mb 0.00 in0.0 mm 0.00 in0.0 mm 0.77 in19.6 mm
03:00 PM 43.3°F6.3°C 42.0°F5.6°C 95% 0.3 mph W0.5 kmh W 6.1 mph9.8 kmh 30.01 in1016.3 mb 0.00 in0.0 mm 0.00 in0.0 mm 0.77 in19.6 mm
03:15 PM 43.0°F6.1°C 41.6°F5.3°C 95% 0.3 mph W0.5 kmh W 3.2 mph5.1 kmh 30.04 in1017.3 mb 0.00 in0.0 mm 0.00 in0.0 mm 0.77 in19.6 mm
03:30 PM 43.0°F6.1°C 41.6°F5.3°C 95% 0.4 mph W0.6 kmh W 5.4 mph8.7 kmh 30.04 in1017.3 mb 0.00 in0.0 mm 0.00 in0.0 mm 0.77 in19.6 mm
03:45 PM 43.0°F6.1°C 41.6°F5.3°C 95% 1.6 mph NW2.6 kmh NW 8.9 mph14.3 kmh 30.04 in1017.3 mb 0.00 in0.0 mm 0.00 in0.0 mm 0.77 in19.6 mm
04:00 PM 43.0°F6.1°C 41.6°F5.3°C 95% 2.1 mph W3.4 kmh W 9.7 mph15.6 kmh 30.04 in1017.3 mb 0.00 in0.0 mm 0.00 in0.0 mm 0.77 in19.6 mm
04:15 PM 43.0°F6.1°C 41.6°F5.3°C 95% 1.8 mph W2.9 kmh W 7.9 mph12.7 kmh 30.04 in1017.3 mb 0.00 in0.0 mm 0.00 in0.0 mm 0.77 in19.6 mm
04:30 PM 42.8°F6.0°C 41.5°F5.3°C 95% 2.4 mph NW3.9 kmh NW 10.0 mph16.1 kmh 30.04 in1017.3 mb 0.00 in0.0 mm 0.00 in0.0 mm 0.77 in19.6 mm
04:45 PM 41.7°F5.4°C 40.4°F4.7°C 95% 4.1 mph NW6.6 kmh NW 16.8 mph27.0 kmh 30.07 in1018.3 mb 0.00 in0.0 mm 0.00 in0.0 mm 0.77 in19.6 mm
05:00 PM 41.0°F5.0°C 39.7°F4.3°C 95% 2.9 mph NW4.7 kmh NW 9.7 mph15.6 kmh 30.07 in1018.3 mb 0.00 in0.0 mm 0.00 in0.0 mm 0.77 in19.6 mm
05:15 PM 40.3°F4.6°C 38.7°F3.7°C 94% 4.0 mph NW6.4 kmh NW 13.6 mph21.9 kmh 30.07 in1018.3 mb 0.00 in0.0 mm 0.00 in0.0 mm 0.77 in19.6 mm
05:30 PM 40.1°F4.5°C 38.8°F3.8°C 95% 2.4 mph NW3.9 kmh NW 10.4 mph16.7 kmh 30.04 in1017.3 mb 0.00 in0.0 mm 0.00 in0.0 mm 0.77 in19.6 mm
05:45 PM 39.9°F4.4°C 38.6°F3.7°C 95% 5.8 mph NW9.3 kmh NW 12.5 mph20.1 kmh 30.07 in1018.3 mb 0.00 in0.0 mm 0.00 in0.0 mm 0.77 in19.6 mm
06:00 PM 39.9°F4.4°C 38.6°F3.7°C 95% 1.9 mph NNW3.1 kmh NNW 10.4 mph16.7 kmh 30.07 in1018.3 mb 0.00 in0.0 mm 0.00 in0.0 mm 0.77 in19.6 mm
06:15 PM 39.9°F4.4°C 38.6°F3.7°C 95% 0.4 mph NE0.6 kmh NE 8.6 mph13.8 kmh 30.07 in1018.3 mb 0.00 in0.0 mm 0.00 in0.0 mm 0.77 in19.6 mm
06:30 PM 39.4°F4.1°C 38.1°F3.4°C 95% 1.3 mph ENE2.1 kmh ENE 9.7 mph15.6 kmh 30.09 in1019.0 mb 0.00 in0.0 mm 0.00 in0.0 mm 0.77 in19.6 mm
06:45 PM 38.5°F3.6°C 36.9°F2.7°C 94% 7.9 mph E12.7 kmh E 15.7 mph25.3 kmh 30.12 in1020.0 mb 0.00 in0.0 mm 0.00 in0.0 mm 0.77 in19.6 mm
07:00 PM 38.1°F3.4°C 36.5°F2.5°C 94% 8.0 mph E12.9 kmh E 14.3 mph23.0 kmh 30.09 in1019.0 mb 0.00 in0.0 mm 0.00 in0.0 mm 0.77 in19.6 mm
07:15 PM 37.8°F3.2°C 36.2°F2.3°C 94% 7.4 mph E11.9 kmh E 12.9 mph20.8 kmh 30.12 in1020.0 mb 0.00 in0.0 mm 0.00 in0.0 mm 0.77 in19.6 mm
07:30 PM 37.2°F2.9°C 35.4°F1.9°C 93% 9.4 mph E15.1 kmh E 17.5 mph28.2 kmh 30.15 in1021.0 mb 0.00 in0.0 mm 0.00 in0.0 mm 0.77 in19.6 mm
07:45 PM 36.7°F2.6°C 34.8°F1.6°C 93% 8.8 mph E14.2 kmh E 14.0 mph22.5 kmh 30.15 in1021.0 mb 0.00 in0.0 mm 0.00 in0.0 mm 0.77 in19.6 mm
08:00 PM 36.3°F2.4°C 34.2°F1.2°C 92% 10.7 mph E17.2 kmh E 20.4 mph32.8 kmh 30.18 in1022.0 mb 0.00 in0.0 mm 0.00 in0.0 mm 0.77 in19.6 mm
08:15 PM 36.1°F2.3°C 34.0°F1.1°C 92% 9.2 mph E14.8 kmh E 15.7 mph25.3 kmh 30.18 in1022.0 mb 0.00 in0.0 mm 0.00 in0.0 mm 0.77 in19.6 mm
08:31 PM 36.0°F2.2°C 33.9°F1.1°C 92% 10.0 mph E16.1 kmh E 17.2 mph27.7 kmh 30.18 in1022.0 mb 0.00 in0.0 mm 0.00 in0.0 mm 0.77 in19.6 mm
08:45 PM 35.8°F2.1°C 33.4°F0.8°C 91% 11.5 mph E18.5 kmh E 24.3 mph39.1 kmh 30.21 in1023.0 mb 0.00 in0.0 mm 0.00 in0.0 mm 0.77 in19.6 mm
09:00 PM 35.6°F2.0°C 33.2°F0.7°C 91% 12.8 mph E20.6 kmh E 26.8 mph43.1 kmh 30.21 in1023.0 mb 0.00 in0.0 mm 0.00 in0.0 mm 0.77 in19.6 mm
09:15 PM 35.6°F2.0°C 33.0°F0.6°C 90% 10.4 mph E16.7 kmh E 20.0 mph32.2 kmh 30.24 in1024.0 mb 0.00 in0.0 mm 0.00 in0.0 mm 0.77 in19.6 mm
09:30 PM 35.4°F1.9°C 32.5°F0.3°C 89% 11.0 mph E17.7 kmh E 24.7 mph39.8 kmh 30.24 in1024.0 mb 0.00 in0.0 mm 0.00 in0.0 mm 0.77 in19.6 mm
09:45 PM 35.2°F1.8°C 31.8°F-0.1°C 87% 13.0 mph E20.9 kmh E 27.6 mph44.4 kmh 30.24 in1024.0 mb 0.00 in0.0 mm 0.00 in0.0 mm 0.77 in19.6 mm
10:00 PM 35.2°F1.8°C 31.5°F-0.3°C 86% 10.4 mph E16.7 kmh E 19.7 mph31.7 kmh 30.27 in1025.1 mb 0.00 in0.0 mm 0.00 in0.0 mm 0.77 in19.6 mm
10:15 PM 35.2°F1.8°C 31.5°F-0.3°C 86% 10.4 mph E16.7 kmh E 23.3 mph37.5 kmh 30.27 in1025.1 mb 0.00 in0.0 mm 0.00 in0.0 mm 0.77 in19.6 mm
10:30 PM 35.1°F1.7°C 31.0°F-0.6°C 85% 9.4 mph E15.1 kmh E 16.5 mph26.6 kmh 30.30 in1026.1 mb 0.00 in0.0 mm 0.00 in0.0 mm 0.77 in19.6 mm
10:45 PM 34.9°F1.6°C 30.2°F-1.0°C 83% 11.7 mph E18.8 kmh E 23.3 mph37.5 kmh 30.27 in1025.1 mb 0.00 in0.0 mm 0.00 in0.0 mm 0.77 in19.6 mm
11:00 PM 34.9°F1.6°C 29.9°F-1.2°C 82% 11.4 mph E18.3 kmh E 20.4 mph32.8 kmh 30.30 in1026.1 mb 0.00 in0.0 mm 0.00 in0.0 mm 0.77 in19.6 mm
11:15 PM 34.7°F1.5°C 30.1°F-1.1°C 83% 10.0 mph E16.1 kmh E 20.0 mph32.2 kmh 30.33 in1027.1 mb 0.00 in0.0 mm 0.00 in0.0 mm 0.77 in19.6 mm
11:30 PM 34.5°F1.4°C 29.9°F-1.2°C 83% 11.0 mph E17.7 kmh E 21.1 mph34.0 kmh 30.36 in1028.1 mb 0.00 in0.0 mm 0.00 in0.0 mm 0.77 in19.6 mm
11:45 PM 34.2°F1.2°C 28.9°F-1.7°C 81% 10.9 mph E17.5 kmh E 23.6 mph38.0 kmh 30.36 in1028.1 mb 0.00 in0.0 mm 0.00 in0.0 mm 0.77 in19.6 mm